createdAt,value
2016-03-18T00:00:14.021Z,1017.67
2016-03-18T00:01:14.070Z,1017.65
2016-03-18T00:02:14.121Z,1017.7
2016-03-18T00:03:14.170Z,1017.65
2016-03-18T00:04:14.219Z,1017.64
2016-03-18T00:05:14.284Z,1017.64
2016-03-18T00:06:14.334Z,1017.66
2016-03-18T00:07:14.373Z,1017.7
2016-03-18T00:08:14.424Z,1017.7
2016-03-18T00:09:14.473Z,1017.72
2016-03-18T00:10:14.538Z,1017.73
2016-03-18T00:11:14.589Z,1017.65
2016-03-18T00:12:14.637Z,1017.68
2016-03-18T00:13:14.687Z,1017.7
2016-03-18T00:14:14.736Z,1017.67
2016-03-18T00:15:14.786Z,1017.67
2016-03-18T00:16:14.836Z,1017.69
2016-03-18T00:17:14.901Z,1017.67
2016-03-18T00:18:14.935Z,1017.66
2016-03-18T00:19:14.999Z,1017.65
2016-03-18T00:20:15.034Z,1017.66
2016-03-18T00:21:15.099Z,1017.66
2016-03-18T00:22:15.149Z,1017.68
2016-03-18T00:23:15.199Z,1017.67
2016-03-18T00:24:15.248Z,1017.7
2016-03-18T00:25:15.297Z,1017.72
2016-03-18T00:26:15.347Z,1017.69
2016-03-18T00:27:15.412Z,1017.7
2016-03-18T00:28:15.462Z,1017.68
2016-03-18T00:29:15.512Z,1017.66
2016-03-18T00:30:15.560Z,1017.67
2016-03-18T00:31:15.612Z,1017.67
2016-03-18T00:32:15.661Z,1017.68
2016-03-18T00:33:15.711Z,1017.66
2016-03-18T00:34:15.760Z,1017.64
2016-03-18T00:35:15.810Z,1017.66
2016-03-18T00:36:15.875Z,1017.62
2016-03-18T00:37:15.925Z,1017.58
2016-03-18T00:38:15.974Z,1017.62
2016-03-18T00:39:16.024Z,1017.61
2016-03-18T00:40:16.073Z,1017.54
2016-03-18T00:41:16.123Z,1017.62
2016-03-18T00:42:16.172Z,1017.59
2016-03-18T00:43:16.221Z,1017.58
2016-03-18T00:44:16.271Z,1017.57
2016-03-18T00:45:16.336Z,1017.52
2016-03-18T00:46:16.370Z,1017.52
2016-03-18T00:47:16.420Z,1017.52
2016-03-18T00:48:16.485Z,1017.5
2016-03-18T00:49:16.535Z,1017.51
2016-03-18T00:50:16.584Z,1017.51
2016-03-18T00:51:16.634Z,1017.46
2016-03-18T00:52:16.699Z,1017.43
2016-03-18T00:53:16.733Z,1017.47
2016-03-18T00:54:16.783Z,1017.42
2016-03-18T00:55:16.847Z,1017.44
2016-03-18T00:56:16.898Z,1017.46
2016-03-18T00:57:16.947Z,1017.42
2016-03-18T00:58:16.997Z,1017.41
2016-03-18T00:59:17.047Z,1017.37
2016-03-18T01:00:17.097Z,1017.39
2016-03-18T01:01:17.145Z,1017.41
2016-03-18T01:02:17.195Z,1017.38
2016-03-18T01:03:17.260Z,1017.33
2016-03-18T01:04:17.294Z,1017.35
2016-03-18T01:05:17.360Z,1017.32
2016-03-18T01:06:17.408Z,1017.31
2016-03-18T01:07:17.448Z,1017.32
2016-03-18T01:08:17.496Z,1017.31
2016-03-18T01:09:17.562Z,1017.3
2016-03-18T01:10:17.627Z,1017.26
2016-03-18T01:11:17.661Z,1017.28
2016-03-18T01:12:17.712Z,1017.25
2016-03-18T01:13:17.760Z,1017.24
2016-03-18T01:14:17.826Z,1017.23
2016-03-18T01:15:17.876Z,1017.25
2016-03-18T01:16:17.925Z,1017.21
2016-03-18T01:17:17.975Z,1017.17
2016-03-18T01:18:18.023Z,1017.2
2016-03-18T01:19:18.073Z,1017.19
2016-03-18T01:20:18.123Z,1017.15
2016-03-18T01:21:18.189Z,1017.11
2016-03-18T01:22:18.222Z,1017.11
2016-03-18T01:23:18.287Z,1017.11
2016-03-18T01:24:18.337Z,1017.11
2016-03-18T01:25:18.386Z,1017.1
2016-03-18T01:26:18.436Z,1017.04
2016-03-18T01:27:18.486Z,1017.01
2016-03-18T01:28:18.535Z,1017.03
2016-03-18T01:29:18.600Z,1016.97
2016-03-18T01:30:18.634Z,1016.99
2016-03-18T01:31:18.699Z,1016.98
2016-03-18T01:32:18.749Z,1016.93
2016-03-18T01:33:18.782Z,1016.89
2016-03-18T01:34:18.849Z,1016.87
2016-03-18T01:35:18.898Z,1016.84
2016-03-18T01:36:18.947Z,1016.88
2016-03-18T01:37:18.996Z,1016.88
2016-03-18T01:38:19.046Z,1016.83
2016-03-18T01:39:19.112Z,1016.84
2016-03-18T01:40:19.162Z,1016.79
2016-03-18T01:41:19.210Z,1016.79
2016-03-18T01:42:19.260Z,1016.77
2016-03-18T01:43:19.310Z,1016.75
2016-03-18T01:44:19.359Z,1016.74
2016-03-18T01:45:19.409Z,1016.77
2016-03-18T01:46:19.458Z,1016.73
2016-03-18T01:47:19.508Z,1016.75
2016-03-18T01:48:19.558Z,1016.78
2016-03-18T01:49:19.606Z,1016.74
2016-03-18T01:50:19.673Z,1016.73
2016-03-18T01:51:19.722Z,1016.73
2016-03-18T01:52:19.772Z,1016.72
2016-03-18T01:53:19.822Z,1016.7
2016-03-18T01:54:19.870Z,1016.69
2016-03-18T01:55:19.920Z,1016.69
2016-03-18T01:56:19.969Z,1016.7
2016-03-18T01:57:20.036Z,1016.72
2016-03-18T01:58:20.069Z,1016.68
2016-03-18T01:59:20.134Z,1016.63
2016-03-18T02:00:20.183Z,1016.65
2016-03-18T02:01:20.233Z,1016.62
2016-03-18T02:02:20.283Z,1016.62
2016-03-18T02:03:20.333Z,1016.5
2016-03-18T02:04:20.382Z,1016.56
2016-03-18T02:05:20.447Z,1016.58
2016-03-18T02:06:20.497Z,1016.55
2016-03-18T02:07:20.547Z,1016.56
2016-03-18T02:08:20.596Z,1016.53
2016-03-18T02:09:20.646Z,1016.52
2016-03-18T02:10:20.695Z,1016.5
2016-03-18T02:11:20.745Z,1016.48
2016-03-18T02:12:20.793Z,1016.5
2016-03-18T02:13:20.844Z,1016.47
2016-03-18T02:14:20.893Z,1016.46
2016-03-18T02:15:20.959Z,1016.45
2016-03-18T02:16:20.993Z,1016.5
2016-03-18T02:17:21.058Z,1016.53
2016-03-18T02:18:21.107Z,1016.51
2016-03-18T02:19:21.156Z,1016.5
2016-03-18T02:20:21.206Z,1016.51
2016-03-18T02:21:21.256Z,1016.53
2016-03-18T02:22:21.306Z,1016.49
2016-03-18T02:23:21.356Z,1016.5
2016-03-18T02:24:21.420Z,1016.53
2016-03-18T02:25:21.453Z,1016.51
2016-03-18T02:26:21.535Z,1016.54
2016-03-18T02:27:21.569Z,1016.52
2016-03-18T02:28:21.619Z,1016.47
2016-03-18T02:29:21.668Z,1016.48
2016-03-18T02:30:21.717Z,1016.47
2016-03-18T02:31:21.767Z,1016.45
2016-03-18T02:32:21.816Z,1016.42
2016-03-18T02:33:21.882Z,1016.46
2016-03-18T02:34:21.916Z,1016.43
2016-03-18T02:35:21.980Z,1016.41
2016-03-18T02:36:22.031Z,1016.43
2016-03-18T02:37:22.080Z,1016.39
2016-03-18T02:38:22.130Z,1016.44
2016-03-18T02:39:22.179Z,1016.42
2016-03-18T02:40:22.228Z,1016.38
2016-03-18T02:41:22.285Z,1016.37
2016-03-18T02:42:22.377Z,1016.39
2016-03-18T02:43:22.385Z,1016.37
2016-03-18T02:44:22.419Z,1016.4
2016-03-18T02:45:22.468Z,1016.4
2016-03-18T02:46:22.518Z,1016.39
2016-03-18T02:47:22.583Z,1016.39
2016-03-18T02:48:22.634Z,1016.35
2016-03-18T02:49:22.667Z,1016.37
2016-03-18T02:50:22.732Z,1016.37
2016-03-18T02:51:22.782Z,1016.39
2016-03-18T02:52:22.832Z,1016.39
2016-03-18T02:53:22.881Z,1016.38
2016-03-18T02:54:22.931Z,1016.41
2016-03-18T02:55:22.996Z,1016.37
2016-03-18T02:56:23.030Z,1016.37
2016-03-18T02:57:23.095Z,1016.4
2016-03-18T02:58:23.144Z,1016.41
2016-03-18T02:59:23.178Z,1016.35
2016-03-18T03:00:23.243Z,1016.36
2016-03-18T03:01:23.293Z,1016.31
2016-03-18T03:02:23.342Z,1016.27
2016-03-18T03:03:23.391Z,1016.31
2016-03-18T03:04:23.457Z,1016.27
2016-03-18T03:05:23.492Z,1016.28
2016-03-18T03:06:23.557Z,1016.32
2016-03-18T03:07:23.622Z,1016.29
2016-03-18T03:08:23.655Z,1016.26
2016-03-18T03:09:23.690Z,1016.26
2016-03-18T03:10:23.754Z,1016.24
2016-03-18T03:11:23.805Z,1016.24
2016-03-18T03:12:23.854Z,1016.26
2016-03-18T03:13:23.904Z,1016.22
2016-03-18T03:14:23.968Z,1016.18
2016-03-18T03:15:24.002Z,1016.22
2016-03-18T03:16:24.067Z,1016.21
2016-03-18T03:17:24.118Z,1016.22
2016-03-18T03:18:24.167Z,1016.21
2016-03-18T03:19:24.217Z,1016.15
2016-03-18T03:20:24.266Z,1016.18
2016-03-18T03:21:24.316Z,1016.19
2016-03-18T03:22:24.428Z,1016.16
2016-03-18T03:23:24.415Z,1016.19
2016-03-18T03:24:24.464Z,1016.19
2016-03-18T03:25:24.529Z,1016.17
2016-03-18T03:26:24.579Z,1016.15
2016-03-18T03:27:24.613Z,1016.19
2016-03-18T03:28:24.678Z,1016.19
2016-03-18T03:29:24.728Z,1016.15
2016-03-18T03:30:24.777Z,1016.13
2016-03-18T03:31:24.842Z,1016.18
2016-03-18T03:32:24.877Z,1016.12
2016-03-18T03:33:24.941Z,1016.12
2016-03-18T03:34:24.992Z,1016.13
2016-03-18T03:35:25.025Z,1016.09
2016-03-18T03:36:25.091Z,1016.09
2016-03-18T03:37:25.140Z,1016.1
2016-03-18T03:38:25.189Z,1016.09
2016-03-18T03:39:25.238Z,1016.08
2016-03-18T03:40:25.304Z,1016.11
2016-03-18T03:41:25.338Z,1016.14
2016-03-18T03:42:25.388Z,1016.11
2016-03-18T03:43:25.452Z,1016.13
2016-03-18T03:44:25.487Z,1016.16
2016-03-18T03:45:25.552Z,1016.15
2016-03-18T03:46:25.602Z,1016.16
2016-03-18T03:47:25.651Z,1016.15
2016-03-18T03:48:25.701Z,1016.09
2016-03-18T03:49:25.751Z,1016.14
2016-03-18T03:50:25.801Z,1016.16
2016-03-18T03:51:25.849Z,1016.18
2016-03-18T03:52:25.899Z,1016.17
2016-03-18T03:53:25.948Z,1016.17
2016-03-18T03:54:26.014Z,1016.16
2016-03-18T03:55:26.064Z,1016.21
2016-03-18T03:56:26.112Z,1016.19
2016-03-18T03:57:26.162Z,1016.19
2016-03-18T03:58:26.211Z,1016.18
2016-03-18T03:59:26.261Z,1016.15
2016-03-18T04:00:26.327Z,1016.22
2016-03-18T04:01:26.361Z,1016.25
2016-03-18T04:02:26.411Z,1016.21
2016-03-18T04:03:26.475Z,1016.2
2016-03-18T04:04:26.525Z,1016.15
2016-03-18T04:05:26.575Z,1016.13
2016-03-18T04:06:26.639Z,1016.13
2016-03-18T04:07:26.693Z,1016.12
2016-03-18T04:08:26.730Z,1016.12
2016-03-18T04:09:26.779Z,1016.07
2016-03-18T04:10:26.829Z,1016.1
2016-03-18T04:11:26.879Z,1016.09
2016-03-18T04:12:26.928Z,1016.07
2016-03-18T04:13:26.978Z,1016.11
2016-03-18T04:14:27.028Z,1016.11
2016-03-18T04:15:27.078Z,1016.14
2016-03-18T04:16:27.126Z,1016.13
2016-03-18T04:17:27.192Z,1016.11
2016-03-18T04:18:27.241Z,1016.08
2016-03-18T04:19:27.291Z,1016.1
2016-03-18T04:20:27.341Z,1016.1
2016-03-18T04:21:27.389Z,1016.08
2016-03-18T04:22:27.455Z,1016.05
2016-03-18T04:23:27.504Z,1016.06
2016-03-18T04:24:27.538Z,1016.02
2016-03-18T04:25:27.588Z,1016.07
2016-03-18T04:26:27.653Z,1016.12
2016-03-18T04:27:27.702Z,1016.1
2016-03-18T04:28:27.753Z,1016.12
2016-03-18T04:29:27.802Z,1016.09
2016-03-18T04:30:27.868Z,1016.07
2016-03-18T04:31:27.901Z,1015.98
2016-03-18T04:32:27.951Z,1016.05
2016-03-18T04:33:28.015Z,1016
2016-03-18T04:34:28.049Z,1016.03
2016-03-18T04:35:28.115Z,1016.01
2016-03-18T04:36:28.149Z,1015.99
2016-03-18T04:37:28.214Z,1016
2016-03-18T04:38:28.264Z,1015.98
2016-03-18T04:39:28.312Z,1015.98
2016-03-18T04:40:28.379Z,1015.98
2016-03-18T04:41:28.412Z,1015.96
2016-03-18T04:42:28.462Z,1016
2016-03-18T04:43:28.527Z,1016
2016-03-18T04:44:28.577Z,1016.03
2016-03-18T04:45:28.626Z,1016.02
2016-03-18T04:46:28.676Z,1016.03
2016-03-18T04:47:28.725Z,1016.06
2016-03-18T04:48:28.775Z,1016.02
2016-03-18T04:49:28.825Z,1016.05
2016-03-18T04:50:28.875Z,1016.04
2016-03-18T04:51:28.924Z,1016.01
2016-03-18T04:52:28.989Z,1016
2016-03-18T04:53:29.022Z,1015.99
2016-03-18T04:54:29.072Z,1015.94
2016-03-18T04:55:29.138Z,1015.94
2016-03-18T04:56:29.188Z,1015.94
2016-03-18T04:57:29.236Z,1015.85
2016-03-18T04:58:29.302Z,1015.85
2016-03-18T04:59:29.336Z,1015.82
2016-03-18T05:00:29.386Z,1015.8
2016-03-18T05:01:29.451Z,1015.8
2016-03-18T05:02:29.499Z,1015.8
2016-03-18T05:03:29.549Z,1015.84
2016-03-18T05:04:29.599Z,1015.85
2016-03-18T05:05:29.649Z,1015.86
2016-03-18T05:06:29.698Z,1015.86
2016-03-18T05:07:29.748Z,1015.83
2016-03-18T05:08:29.797Z,1015.83
2016-03-18T05:09:29.847Z,1015.8
2016-03-18T05:10:29.896Z,1015.8
2016-03-18T05:11:29.946Z,1015.81
2016-03-18T05:12:30.011Z,1015.79
2016-03-18T05:13:30.062Z,1015.81
2016-03-18T05:14:30.111Z,1015.82
2016-03-18T05:15:30.145Z,1015.89
2016-03-18T05:16:30.210Z,1015.9
2016-03-18T05:17:30.259Z,1015.88
2016-03-18T05:18:30.309Z,1015.9
2016-03-18T05:19:30.359Z,1015.93
2016-03-18T05:20:30.423Z,1015.93
2016-03-18T05:21:30.458Z,1015.93
2016-03-18T05:22:30.507Z,1015.91
2016-03-18T05:23:30.572Z,1015.91
2016-03-18T05:24:30.622Z,1015.9
2016-03-18T05:25:30.655Z,1015.9
2016-03-18T05:26:30.721Z,1015.94
2016-03-18T05:27:30.770Z,1015.91
2016-03-18T05:28:30.819Z,1015.9
2016-03-18T05:29:30.869Z,1015.88
2016-03-18T05:30:30.919Z,1015.9
2016-03-18T05:31:30.968Z,1015.9
2016-03-18T05:32:31.018Z,1015.9
2016-03-18T05:33:31.068Z,1015.89
2016-03-18T05:34:31.118Z,1015.88
2016-03-18T05:35:31.183Z,1015.93
2016-03-18T05:36:31.233Z,1015.97
2016-03-18T05:37:31.266Z,1015.96
2016-03-18T05:38:31.332Z,1015.97
2016-03-18T05:39:31.365Z,1015.97
2016-03-18T05:40:31.414Z,1015.99
2016-03-18T05:41:31.479Z,1016
2016-03-18T05:42:31.529Z,1016.03
2016-03-18T05:43:31.579Z,1016.03
2016-03-18T05:44:31.629Z,1016.07
2016-03-18T05:45:31.678Z,1016.04
2016-03-18T05:46:31.728Z,1016.13
2016-03-18T05:47:31.777Z,1016.13
2016-03-18T05:48:31.843Z,1016.1
2016-03-18T05:49:31.876Z,1016.12
2016-03-18T05:50:31.926Z,1016.11
2016-03-18T05:51:31.991Z,1016.11
2016-03-18T05:52:32.025Z,1016.13
2016-03-18T05:53:32.091Z,1016.19
2016-03-18T05:54:32.125Z,1016.1
2016-03-18T05:55:32.189Z,1016.08
2016-03-18T05:56:32.239Z,1016.09
2016-03-18T05:57:32.289Z,1016.09
2016-03-18T05:58:32.323Z,1016.11
2016-03-18T05:59:32.388Z,1016.12
2016-03-18T06:00:32.437Z,1016.06
2016-03-18T06:01:32.487Z,1016.06
2016-03-18T06:02:32.536Z,1016.15
2016-03-18T06:03:32.586Z,1016.11
2016-03-18T06:04:32.635Z,1016.14
2016-03-18T06:05:32.701Z,1016.12
2016-03-18T06:06:32.734Z,1016.13
2016-03-18T06:07:32.799Z,1016.12
2016-03-18T06:08:32.834Z,1016.14
2016-03-18T06:09:32.884Z,1016.12
2016-03-18T06:10:32.948Z,1016.19
2016-03-18T06:11:32.998Z,1016.13
2016-03-18T06:12:33.032Z,1016.15
2016-03-18T06:13:33.098Z,1016.11
2016-03-18T06:14:33.147Z,1016.09
2016-03-18T06:15:33.196Z,1016.14
2016-03-18T06:16:33.246Z,1016.13
2016-03-18T06:17:33.296Z,1016.13
2016-03-18T06:18:33.345Z,1016.1
2016-03-18T06:19:33.394Z,1016.14
2016-03-18T06:20:33.444Z,1016.13
2016-03-18T06:21:33.494Z,1016.13
2016-03-18T06:22:33.544Z,1016.12
2016-03-18T06:23:33.592Z,1016.13
2016-03-18T06:24:33.658Z,1016.1
2016-03-18T06:25:33.692Z,1016.08
2016-03-18T06:26:33.742Z,1016.07
2016-03-18T06:27:33.807Z,1016.03
2016-03-18T06:28:33.856Z,1016.04
2016-03-18T06:29:33.905Z,1016.01
2016-03-18T06:30:33.956Z,1016.01
2016-03-18T06:31:34.005Z,1016.01
2016-03-18T06:32:34.055Z,1016.02
2016-03-18T06:33:34.104Z,1016.05
2016-03-18T06:34:34.138Z,1016
2016-03-18T06:35:34.204Z,1016.01
2016-03-18T06:36:34.253Z,1015.99
2016-03-18T06:37:34.302Z,1016.05
2016-03-18T06:38:34.352Z,1016.03
2016-03-18T06:39:34.402Z,1016.01
2016-03-18T06:40:34.451Z,1015.99
2016-03-18T06:41:34.501Z,1015.97
2016-03-18T06:42:34.565Z,1016.01
2016-03-18T06:43:34.601Z,1015.98
2016-03-18T06:44:34.665Z,1015.98
2016-03-18T06:45:34.699Z,1016
2016-03-18T06:46:34.748Z,1015.97
2016-03-18T06:47:34.814Z,1015.95
2016-03-18T06:48:34.848Z,1015.98
2016-03-18T06:49:34.913Z,1016.01
2016-03-18T06:50:34.962Z,1015.96
2016-03-18T06:51:34.997Z,1015.94
2016-03-18T06:52:35.062Z,1015.98
2016-03-18T06:53:35.112Z,1015.97
2016-03-18T06:54:35.161Z,1015.95
2016-03-18T06:55:35.211Z,1015.97
2016-03-18T06:56:35.264Z,1015.96
2016-03-18T06:57:35.286Z,1015.96
2016-03-18T06:58:35.323Z,1016
2016-03-18T06:59:35.360Z,1015.99
2016-03-18T07:00:35.398Z,1015.95
2016-03-18T07:01:35.442Z,1015.94
2016-03-18T07:02:35.488Z,1015.92
2016-03-18T07:03:35.533Z,1015.95
2016-03-18T07:04:35.593Z,1015.93
2016-03-18T07:05:35.639Z,1015.93
2016-03-18T07:06:35.687Z,1015.97
2016-03-18T07:07:35.735Z,1015.98
2016-03-18T07:08:35.784Z,1015.99
2016-03-18T07:09:35.832Z,1015.97
2016-03-18T07:10:35.879Z,1016.01
2016-03-18T07:11:35.928Z,1015.97
2016-03-18T07:12:35.978Z,1015.97
2016-03-18T07:13:36.043Z,1016
2016-03-18T07:14:36.076Z,1016
2016-03-18T07:15:36.125Z,1016
2016-03-18T07:16:36.174Z,1015.99
2016-03-18T07:17:36.224Z,1016.01
2016-03-18T07:18:36.272Z,1015.99
2016-03-18T07:19:36.337Z,1015.99
2016-03-18T07:20:36.370Z,1015.98
2016-03-18T07:21:36.421Z,1016
2016-03-18T07:22:36.486Z,1016.01
2016-03-18T07:23:36.520Z,1016.02
2016-03-18T07:24:36.631Z,1016.04
2016-03-18T07:25:36.634Z,1016.07
2016-03-18T07:26:36.684Z,1016.05
2016-03-18T07:27:36.734Z,1016.07
2016-03-18T07:28:36.799Z,1016.1
2016-03-18T07:29:36.833Z,1016.06
2016-03-18T07:30:36.882Z,1016.07
2016-03-18T07:31:36.948Z,1016.06
2016-03-18T07:32:36.997Z,1016.03
2016-03-18T07:33:37.031Z,1016.02
2016-03-18T07:34:37.096Z,1016.05
2016-03-18T07:35:37.146Z,1016.06
2016-03-18T07:36:37.195Z,1016.01
2016-03-18T07:37:37.261Z,1015.95
2016-03-18T07:38:37.294Z,1015.96
2016-03-18T07:39:37.344Z,1016.01
2016-03-18T07:40:37.393Z,1015.98
2016-03-18T07:41:37.443Z,1015.95
2016-03-18T07:42:37.493Z,1015.93
2016-03-18T07:43:37.542Z,1015.94
2016-03-18T07:44:37.591Z,1015.92
2016-03-18T07:45:37.641Z,1015.92
2016-03-18T07:46:37.706Z,1015.95
2016-03-18T07:47:37.757Z,1015.94
2016-03-18T07:48:37.806Z,1015.94
2016-03-18T07:49:37.840Z,1015.93
2016-03-18T07:50:37.889Z,1015.94
2016-03-18T07:51:37.954Z,1015.93
2016-03-18T07:52:38.004Z,1015.92
2016-03-18T07:53:38.053Z,1015.93
2016-03-18T07:54:38.118Z,1015.94
2016-03-18T07:55:38.153Z,1015.96
2016-03-18T07:56:38.203Z,1015.95
2016-03-18T07:57:38.268Z,1015.98
2016-03-18T07:58:38.317Z,1016.01
2016-03-18T07:59:38.366Z,1016.02
2016-03-18T08:00:38.417Z,1016.01
2016-03-18T08:01:38.466Z,1016.03
2016-03-18T08:02:38.515Z,1016.03
2016-03-18T08:03:38.565Z,1016
2016-03-18T08:04:38.614Z,1015.99
2016-03-18T08:05:38.664Z,1015.97
2016-03-18T08:06:38.713Z,1015.95
2016-03-18T08:07:38.764Z,1015.99
2016-03-18T08:08:38.828Z,1016
2016-03-18T08:09:38.862Z,1015.97
2016-03-18T08:10:38.911Z,1015.98
2016-03-18T08:11:38.977Z,1015.98
2016-03-18T08:12:39.026Z,1015.93
2016-03-18T08:13:39.076Z,1015.89
2016-03-18T08:14:39.126Z,1015.9
2016-03-18T08:15:39.159Z,1015.85
2016-03-18T08:16:39.225Z,1015.87
2016-03-18T08:17:39.274Z,1015.87
2016-03-18T08:18:39.324Z,1015.87
2016-03-18T08:19:39.389Z,1015.86
2016-03-18T08:20:39.423Z,1015.83
2016-03-18T08:21:39.473Z,1015.85
2016-03-18T08:22:39.522Z,1015.82
2016-03-18T08:23:39.587Z,1015.84
2016-03-18T08:24:39.621Z,1015.84
2016-03-18T08:25:39.670Z,1015.84
2016-03-18T08:26:39.737Z,1015.83
2016-03-18T08:27:39.786Z,1015.88
2016-03-18T08:28:39.834Z,1015.8
2016-03-18T08:29:39.885Z,1015.82
2016-03-18T08:30:39.919Z,1015.77
2016-03-18T08:31:39.984Z,1015.78
2016-03-18T08:32:40.033Z,1015.78
2016-03-18T08:33:40.083Z,1015.77
2016-03-18T08:34:40.147Z,1015.74
2016-03-18T08:35:40.183Z,1015.77
2016-03-18T08:36:40.231Z,1015.78
2016-03-18T08:37:40.297Z,1015.75
2016-03-18T08:38:40.346Z,1015.77
2016-03-18T08:39:40.396Z,1015.72
2016-03-18T08:40:40.446Z,1015.78
2016-03-18T08:41:40.479Z,1015.8
2016-03-18T08:42:40.544Z,1015.84
2016-03-18T08:43:40.594Z,1015.86
2016-03-18T08:44:40.644Z,1015.86
2016-03-18T08:45:40.694Z,1015.87
2016-03-18T08:46:40.758Z,1015.85
2016-03-18T08:47:40.792Z,1015.84
2016-03-18T08:48:40.843Z,1015.87
2016-03-18T08:49:40.891Z,1015.89
2016-03-18T08:50:40.940Z,1015.87
2016-03-18T08:51:41.007Z,1015.91
2016-03-18T08:52:41.040Z,1015.85
2016-03-18T08:53:41.106Z,1015.84
2016-03-18T08:54:41.155Z,1015.89
2016-03-18T08:55:41.204Z,1015.9
2016-03-18T08:56:41.253Z,1015.91
2016-03-18T08:57:41.304Z,1015.91
2016-03-18T08:58:41.353Z,1015.86
2016-03-18T08:59:41.402Z,1015.89
2016-03-18T09:00:41.452Z,1015.91
2016-03-18T09:01:41.502Z,1015.94
2016-03-18T09:02:41.551Z,1015.94
2016-03-18T09:03:41.617Z,1015.95
2016-03-18T09:04:41.650Z,1015.93
2016-03-18T09:05:41.700Z,1015.92
2016-03-18T09:06:41.766Z,1015.87
2016-03-18T09:07:41.814Z,1015.86
2016-03-18T09:08:41.864Z,1015.89
2016-03-18T09:09:41.913Z,1015.86
2016-03-18T09:10:41.964Z,1015.9
2016-03-18T09:11:42.013Z,1015.9
2016-03-18T09:12:42.063Z,1015.86
2016-03-18T09:13:42.113Z,1015.82
2016-03-18T09:14:42.162Z,1015.77
2016-03-18T09:15:42.211Z,1015.78
2016-03-18T09:16:42.261Z,1015.78
2016-03-18T09:17:42.310Z,1015.77
2016-03-18T09:18:42.376Z,1015.79
2016-03-18T09:19:42.409Z,1015.77
2016-03-18T09:20:42.474Z,1015.81
2016-03-18T09:21:42.524Z,1015.82
2016-03-18T09:22:42.574Z,1015.89
2016-03-18T09:23:42.623Z,1015.88
2016-03-18T09:24:42.673Z,1015.92
2016-03-18T09:25:42.723Z,1015.92
2016-03-18T09:26:42.772Z,1015.89
2016-03-18T09:27:42.837Z,1015.92
2016-03-18T09:28:42.871Z,1015.92
2016-03-18T09:29:42.921Z,1015.97
2016-03-18T09:30:42.986Z,1015.92
2016-03-18T09:31:43.036Z,1015.9
2016-03-18T09:32:43.086Z,1015.89
2016-03-18T09:33:48.509Z,1015.95
2016-03-18T09:34:43.184Z,1015.97
2016-03-18T09:35:43.233Z,1015.92
2016-03-18T09:36:43.284Z,1016
2016-03-18T09:37:43.333Z,1016.02
2016-03-18T09:38:43.383Z,1016.02
2016-03-18T09:39:43.432Z,1016.07
2016-03-18T09:40:43.482Z,1016.09
2016-03-18T09:41:43.531Z,1016.1
2016-03-18T09:42:43.596Z,1016.09
2016-03-18T09:43:43.630Z,1016.12
2016-03-18T09:44:43.680Z,1016.08
2016-03-18T09:45:43.729Z,1016.05
2016-03-18T09:46:43.795Z,1016.02
2016-03-18T09:47:43.844Z,1016
2016-03-18T09:48:43.893Z,1016.02
2016-03-18T09:49:43.944Z,1015.99
2016-03-18T09:50:43.993Z,1015.99
2016-03-18T09:51:44.042Z,1016.02
2016-03-18T09:52:44.093Z,1015.97
2016-03-18T09:53:44.142Z,1016.01
2016-03-18T09:54:44.191Z,1015.99
2016-03-18T09:55:44.257Z,1016.01
2016-03-18T09:56:44.290Z,1016.06
2016-03-18T09:57:44.356Z,1016.01
2016-03-18T09:58:44.389Z,1016.04
2016-03-18T09:59:44.439Z,1016.11
2016-03-18T10:00:44.503Z,1016.1
2016-03-18T10:01:44.553Z,1016.09
2016-03-18T10:02:44.603Z,1016.05
2016-03-18T10:03:44.653Z,1015.98
2016-03-18T10:04:44.717Z,1015.99
2016-03-18T10:05:44.753Z,1015.91
2016-03-18T10:06:44.802Z,1015.98
2016-03-18T10:07:44.850Z,1016.02
2016-03-18T10:08:44.901Z,1016.07
2016-03-18T10:09:44.966Z,1016.05
2016-03-18T10:10:45.000Z,1016.12
2016-03-18T10:11:45.066Z,1016.08
2016-03-18T10:12:45.114Z,1016.12
2016-03-18T10:13:45.164Z,1016.1
2016-03-18T10:14:45.198Z,1016.11
2016-03-18T10:15:45.263Z,1016.14
2016-03-18T10:16:45.313Z,1016.12
2016-03-18T10:17:45.346Z,1016.08
2016-03-18T10:18:45.428Z,1016.11
2016-03-18T10:19:45.477Z,1016.13
2016-03-18T10:20:45.511Z,1016.14
2016-03-18T10:21:45.576Z,1016.19
2016-03-18T10:22:45.610Z,1016.16
2016-03-18T10:23:45.659Z,1016.2
2016-03-18T10:24:45.709Z,1016.14
2016-03-18T10:25:45.774Z,1016.14
2016-03-18T10:26:45.823Z,1016.12
2016-03-18T10:27:45.874Z,1016.12
2016-03-18T10:28:45.923Z,1016.07
2016-03-18T10:29:45.973Z,1016.06
2016-03-18T10:30:46.022Z,1016.05
2016-03-18T10:31:46.072Z,1016.03
2016-03-18T10:32:46.121Z,1015.99
2016-03-18T10:33:46.171Z,1016.01
2016-03-18T10:34:46.221Z,1015.98
2016-03-18T10:35:46.270Z,1015.95
2016-03-18T10:36:46.320Z,1015.94
2016-03-18T10:37:46.385Z,1015.92
2016-03-18T10:38:46.434Z,1015.93
2016-03-18T10:39:46.469Z,1015.95
2016-03-18T10:40:46.533Z,1015.9
2016-03-18T10:41:46.583Z,1015.86
2016-03-18T10:42:46.633Z,1015.86
2016-03-18T10:43:46.683Z,1015.83
2016-03-18T10:44:46.747Z,1015.78
2016-03-18T10:45:46.782Z,1015.75
2016-03-18T10:46:46.830Z,1015.68
2016-03-18T10:47:46.880Z,1015.66
2016-03-18T10:48:46.930Z,1015.67
2016-03-18T10:49:46.979Z,1015.7
2016-03-18T10:50:47.046Z,1015.73
2016-03-18T10:51:47.079Z,1015.69
2016-03-18T10:52:47.143Z,1015.75
2016-03-18T10:53:47.194Z,1015.77
2016-03-18T10:54:47.243Z,1015.78
2016-03-18T10:55:47.293Z,1015.78
2016-03-18T10:56:47.343Z,1015.73
2016-03-18T10:57:47.392Z,1015.74
2016-03-18T10:58:47.442Z,1015.76
2016-03-18T10:59:47.491Z,1015.75
2016-03-18T11:00:47.540Z,1015.78
2016-03-18T11:01:47.590Z,1015.76
2016-03-18T11:02:47.656Z,1015.76
2016-03-18T11:03:47.689Z,1015.79
2016-03-18T11:04:47.754Z,1015.75
2016-03-18T11:05:47.804Z,1015.74
2016-03-18T11:06:47.853Z,1015.76
2016-03-18T11:07:47.903Z,1015.73
2016-03-18T11:08:47.953Z,1015.77
2016-03-18T11:09:48.002Z,1015.78
2016-03-18T11:10:48.052Z,1015.78
2016-03-18T11:11:48.102Z,1015.81
2016-03-18T11:12:48.150Z,1015.76
2016-03-18T11:13:48.200Z,1015.74
2016-03-18T11:14:48.250Z,1015.75
2016-03-18T11:15:48.316Z,1015.72
2016-03-18T11:16:48.365Z,1015.72
2016-03-18T11:17:48.399Z,1015.68
2016-03-18T11:18:48.449Z,1015.67
2016-03-18T11:19:48.513Z,1015.63
2016-03-18T11:20:48.547Z,1015.64
2016-03-18T11:21:48.613Z,1015.65
2016-03-18T11:22:48.663Z,1015.59
2016-03-18T11:23:48.712Z,1015.59
2016-03-18T11:24:48.762Z,1015.59
2016-03-18T11:25:48.810Z,1015.61
2016-03-18T11:26:48.860Z,1015.59
2016-03-18T11:27:48.910Z,1015.58
2016-03-18T11:28:48.960Z,1015.6
2016-03-18T11:29:49.009Z,1015.57
2016-03-18T11:30:49.073Z,1015.57
2016-03-18T11:31:49.124Z,1015.52
2016-03-18T11:32:49.173Z,1015.5
2016-03-18T11:33:49.223Z,1015.53
2016-03-18T11:34:49.272Z,1015.53
2016-03-18T11:35:49.322Z,1015.47
2016-03-18T11:36:49.372Z,1015.46
2016-03-18T11:37:49.436Z,1015.45
2016-03-18T11:38:49.470Z,1015.46
2016-03-18T11:39:49.536Z,1015.47
2016-03-18T11:40:49.586Z,1015.49
2016-03-18T11:41:49.635Z,1015.53
2016-03-18T11:42:49.669Z,1015.57
2016-03-18T11:43:49.734Z,1015.6
2016-03-18T11:44:49.769Z,1015.65
2016-03-18T11:45:49.833Z,1015.62
2016-03-18T11:46:49.883Z,1015.62
2016-03-18T11:47:49.933Z,1015.65
2016-03-18T11:48:49.966Z,1015.58
2016-03-18T11:49:50.032Z,1015.58
2016-03-18T11:50:50.081Z,1015.53
2016-03-18T11:51:50.131Z,1015.49
2016-03-18T11:52:50.180Z,1015.49
2016-03-18T11:53:50.229Z,1015.49
2016-03-18T11:54:50.295Z,1015.51
2016-03-18T11:55:50.329Z,1015.55
2016-03-18T11:56:50.379Z,1015.53
2016-03-18T11:57:50.449Z,1015.59
2016-03-18T11:58:50.498Z,1015.6
2016-03-18T11:59:50.532Z,1015.61
2016-03-18T12:00:50.597Z,1015.64
2016-03-18T12:01:50.647Z,1015.63
2016-03-18T12:02:50.681Z,1015.58
2016-03-18T12:03:50.745Z,1015.55
2016-03-18T12:04:50.795Z,1015.59
2016-03-18T12:05:50.845Z,1015.61
2016-03-18T12:06:50.895Z,1015.63
2016-03-18T12:07:50.945Z,1015.66
2016-03-18T12:08:50.994Z,1015.65
2016-03-18T12:09:51.059Z,1015.67